Johannesburg, Suid-Afrika

02:50 PM SAST on Julie 05, 2015 (GMT +0200)
Johannesburg | | Change Station
CLOSE
Current Station
Airport
Location: Johannesburg,
Elevation: 5643 ft
Nearby Weather Stations

Elev 5643 ft 26.13 °S, 28.24 °E | Updated 20 minutes ago

Clear
Oop
68 °F
Feels Like 68 °F
N
6
Wind Veranderlik Wind from NNW

Vandag
High -- | Low -- °F
--% Chance of Precip.
Yesterday
High -- | Low -- °F
Precip. -- in
6:55 AM 5:28 PM
Waning Gibbous, 85% visible
Druk 30.33 in
Sigbaarheid -9999.0 myle
Wolke
Dou-punt 27 °F
Humiditeit 21%
Rainfall 0.00 in
Snow Depth Not available.
UV Not available.
Pollen Not available.
Air Quality Not available.
Flu Activity Not available.
METAR FAOR 051230Z 33005KT 270V010 CAVOK 20/M03 Q1027 NOSIG

More Conditions Fewer Conditions

Druk 30.33 in
Sigbaarheid -9999.0 myle
Wolke
Dou-punt 27 °F
Humiditeit 21%
Rainfall 0.00 in
Snow Depth Not available.
UV Not available.
Pollen Not available.
Air Quality Not available.
Flu Activity Not available.
METAR FAOR 051230Z 33005KT 270V010 CAVOK 20/M03 Q1027 NOSIG

More Conditions Fewer Conditions

10-Day Weather Forecast

×

Almanac

Astronomy

Jul. 05, 2015 Rise Set
Ware Tyd
Civil Twilight
Nautical Twilight
Astronomical Twilight
Maan
Length Of Visible Light
Length of Day
Tomorrow will be .
, % of the Moon is Illuminated

Today's Extremes

Country Highs Country Lows

Community

WunderPhotos

Upload Photos

1,835,248 photos uploaded!

WunderBlogs® & News

Nearby

Air Quality

  Air Quality AQ Index Pollutant
Not available.

Snow Depth

Station Depth Elevation

Earthquake Activity

Stad Distance Mag. Time & Date
Minimum magnitude displayed is 2.5.

Coastal Water Temperatures

Plek Temperatuur

Stations

Nearby Weather Stations

Station Location Temp Wind afkoel Dou-punt Humiditeit Wind Precip. Elev Opdateer Type